Time;durP1;ratioP1;P1;durP2;ratioP2;P2;SDS_P1;SDS_P2;PMS_P1;PMS_P2;Temp;Humidity;BMP_temperature;BMP_pressure;BME280_temperature;BME280_humidity;BME280_pressure;Samples;Min_cycle;Max_cycle;Signal;HPM_P1;HPM_P2
2023/12/20 00:01:48;;;;;;;0.67;0.40;;;7.90;99.90;;;;;;7388867;19;20576;-73
2023/12/20 00:04:13;;;;;;;0.60;0.60;;;8.10;99.90;;;;;;7388903;19;20210;-73
2023/12/20 00:06:39;;;;;;;0.50;0.50;;;8.10;99.90;;;;;;7388240;19;20134;-74
2023/12/20 00:09:05;;;;;;;0.40;0.40;;;8.10;99.90;;;;;;7387784;19;20138;-73
2023/12/20 00:11:30;;;;;;;0.30;0.30;;;8.00;99.90;;;;;;7388157;19;20146;-73
2023/12/20 00:13:56;;;;;;;0.30;0.30;;;8.20;99.90;;;;;;7388873;19;20425;-73
2023/12/20 00:16:22;;;;;;;0.33;0.33;;;8.20;99.90;;;;;;7389089;19;20139;-73
2023/12/20 00:18:48;;;;;;;0.60;0.60;;;8.20;99.90;;;;;;7385595;19;20146;-72
2023/12/20 00:21:13;;;;;;;0.53;0.40;;;8.30;99.90;;;;;;7389803;19;20600;-72
2023/12/20 00:23:39;;;;;;;0.70;0.53;;;8.20;99.90;;;;;;7386972;19;20158;-73
2023/12/20 00:26:05;;;;;;;0.30;0.30;;;8.30;99.90;;;;;;7387893;19;20251;-74
2023/12/20 00:28:30;;;;;;;0.40;0.40;;;8.10;99.90;;;;;;7389299;19;20151;-74
2023/12/20 00:30:56;;;;;;;0.50;0.50;;;8.20;99.90;;;;;;7389265;19;20558;-74
2023/12/20 00:33:22;;;;;;;0.40;0.40;;;8.30;99.90;;;;;;7387126;19;20148;-74
2023/12/20 00:35:48;;;;;;;0.30;0.30;;;8.20;99.90;;;;;;7386476;19;20150;-74
2023/12/20 00:38:14;;;;;;;0.60;0.60;;;8.20;99.90;;;;;;7388112;19;20158;-75
2023/12/20 00:40:40;;;;;;;0.53;0.40;;;8.20;99.90;;;;;;7389186;19;20584;-74
2023/12/20 00:43:06;;;;;;;0.30;0.30;;;8.30;99.90;;;;;;7388952;19;20201;-74
2023/12/20 00:45:31;;;;;;;0.33;0.33;;;8.40;99.90;;;;;;7388811;19;20142;-74
2023/12/20 00:47:59;;;;;;;0.37;0.37;;;8.30;99.90;;;;;;7386290;19;20245;-74
2023/12/20 00:50:25;;;;;;;0.30;0.30;;;8.20;99.90;;;;;;7387582;19;20130;-75
2023/12/20 00:52:50;;;;;;;0.30;0.30;;;8.30;99.90;;;;;;7387806;19;20146;-74
2023/12/20 00:55:18;;;;;;;0.40;0.40;;;8.20;99.90;;;;;;7384612;19;20218;-74
2023/12/20 00:57:44;;;;;;;0.40;0.40;;;8.30;99.90;;;;;;7387123;19;20200;-74
2023/12/20 01:00:10;;;;;;;0.63;0.57;;;8.30;99.90;;;;;;7386953;19;20137;-73
2023/12/20 01:02:36;;;;;;;0.57;0.50;;;8.20;99.90;;;;;;7387972;19;20231;-73
2023/12/20 01:05:02;;;;;;;0.70;0.70;;;8.20;99.90;;;;;;7384341;19;20667;-74
2023/12/20 01:07:28;;;;;;;2.03;0.60;;;8.30;99.90;;;;;;7389710;19;20159;-74
2023/12/20 01:09:54;;;;;;;0.50;0.50;;;8.30;99.90;;;;;;7385026;19;20127;-74
2023/12/20 01:12:20;;;;;;;0.63;0.63;;;8.20;99.90;;;;;;7386846;19;20126;-73
2023/12/20 01:14:46;;;;;;;1.10;1.00;;;8.30;99.90;;;;;;7386152;19;20679;-73
2023/12/20 01:17:12;;;;;;;1.57;0.83;;;8.20;99.90;;;;;;7387249;19;20194;-74
2023/12/20 01:19:38;;;;;;;0.30;0.30;;;8.20;99.90;;;;;;7388657;19;20131;-74
2023/12/20 01:22:04;;;;;;;0.30;0.30;;;8.00;99.90;;;;;;7388774;19;20138;-74
2023/12/20 01:24:29;;;;;;;0.30;0.30;;;8.00;99.90;;;;;;7397431;19;20424;-74
2023/12/20 01:26:55;;;;;;;0.40;0.40;;;8.00;99.90;;;;;;7392827;19;20134;-74
2023/12/20 01:29:21;;;;;;;0.30;0.30;;;8.10;99.90;;;;;;7393076;19;20162;-73
2023/12/20 01:31:46;;;;;;;0.33;0.33;;;8.00;99.90;;;;;;7393383;19;20603;-74
2023/12/20 01:34:12;;;;;;;0.30;0.30;;;7.80;99.90;;;;;;7393899;19;20138;-73
2023/12/20 01:36:38;;;;;;;0.43;0.33;;;7.80;99.90;;;;;;7394063;19;20233;-74
2023/12/20 01:39:04;;;;;;;0.33;0.33;;;7.90;99.90;;;;;;7392818;19;20131;-74
2023/12/20 01:41:29;;;;;;;0.30;0.30;;;7.90;99.90;;;;;;7393534;19;20738;-73
2023/12/20 01:43:55;;;;;;;0.30;0.30;;;7.90;99.90;;;;;;7394680;19;20202;-73
2023/12/20 01:46:21;;;;;;;0.30;0.30;;;7.90;99.90;;;;;;7392055;19;20160;-73
2023/12/20 01:48:48;;;;;;;0.20;0.20;;;8.10;99.90;;;;;;7392081;19;20153;-73
2023/12/20 01:51:14;;;;;;;0.33;0.33;;;8.00;99.90;;;;;;7395559;19;20138;-73
2023/12/20 01:53:42;;;;;;;0.50;0.50;;;8.00;99.90;;;;;;7393098;19;20147;-73
2023/12/20 01:56:08;;;;;;;1.50;0.30;;;8.10;99.90;;;;;;7394223;19;20142;-73
2023/12/20 01:58:34;;;;;;;0.23;0.23;;;8.00;99.90;;;;;;7390159;19;20142;-74
2023/12/20 02:01:00;;;;;;;0.30;0.30;;;8.00;99.90;;;;;;7394625;19;20139;-74
2023/12/20 02:03:26;;;;;;;0.47;0.47;;;7.90;99.90;;;;;;7391596;19;21136;-73
2023/12/20 02:05:53;;;;;;;0.20;0.20;;;8.00;99.90;;;;;;7392979;19;20154;-74
2023/12/20 02:08:18;;;;;;;0.30;0.30;;;8.00;99.90;;;;;;7383385;19;20592;-75
2023/12/20 02:10:44;;;;;;;0.20;0.20;;;7.80;99.90;;;;;;7391354;19;20155;-73
2023/12/20 02:13:10;;;;;;;0.30;0.30;;;7.80;99.90;;;;;;7393376;19;20157;-73
2023/12/20 02:15:37;;;;;;;0.40;0.40;;;7.90;99.90;;;;;;7391022;19;20154;-74
2023/12/20 02:18:03;;;;;;;0.50;0.30;;;7.90;99.90;;;;;;7392748;19;20482;-74
2023/12/20 02:20:29;;;;;;;0.40;0.30;;;7.90;99.90;;;;;;7393137;19;20183;-73
2023/12/20 02:22:55;;;;;;;0.30;0.30;;;7.90;99.90;;;;;;7392998;19;20706;-74
2023/12/20 02:25:21;;;;;;;0.20;0.20;;;8.00;99.90;;;;;;7392716;19;20138;-74
2023/12/20 02:27:48;;;;;;;0.20;0.20;;;8.00;99.90;;;;;;7389038;19;20151;-74
2023/12/20 02:30:14;;;;;;;0.47;0.40;;;8.10;99.90;;;;;;7392950;19;20153;-74
2023/12/20 02:32:40;;;;;;;0.55;0.35;;;8.00;99.90;;;;;;7393087;19;20390;-74
2023/12/20 02:35:06;;;;;;;0.30;0.30;;;8.00;99.90;;;;;;7388604;19;20206;-73
2023/12/20 02:37:33;;;;;;;0.40;0.40;;;8.10;99.90;;;;;;7390228;19;20218;-74
2023/12/20 02:39:59;;;;;;;0.30;0.30;;;8.00;99.90;;;;;;7392719;19;20605;-74
2023/12/20 02:42:24;;;;;;;0.33;0.33;;;8.10;99.90;;;;;;7393560;19;20138;-74
2023/12/20 02:44:50;;;;;;;0.20;0.20;;;8.00;99.90;;;;;;7391755;19;20138;-74
2023/12/20 02:47:16;;;;;;;0.50;0.50;;;8.00;99.90;;;;;;7394067;19;20529;-75
2023/12/20 02:49:42;;;;;;;0.40;0.40;;;8.00;99.90;;;;;;7390746;19;20667;-75
2023/12/20 02:52:07;;;;;;;0.50;0.40;;;7.90;99.90;;;;;;7391129;19;20694;-74
2023/12/20 02:54:33;;;;;;;0.67;0.40;;;7.90;99.90;;;;;;7393746;19;20619;-74
2023/12/20 02:56:59;;;;;;;0.30;0.30;;;7.90;99.90;;;;;;7391803;19;20596;-73
2023/12/20 02:59:24;;;;;;;0.43;0.43;;;7.90;99.90;;;;;;7390678;19;20163;-74
2023/12/20 03:01:53;;;;;;;0.30;0.30;;;7.90;99.90;;;;;;7388977;19;20146;-74
2023/12/20 03:04:19;;;;;;;0.30;0.30;;;7.80;99.90;;;;;;7390541;19;20544;-74
2023/12/20 03:06:44;;;;;;;0.57;0.40;;;7.90;99.90;;;;;;7394996;19;20152;-75
2023/12/20 03:09:10;;;;;;;0.53;0.53;;;7.80;99.90;;;;;;7389118;19;20144;-74
2023/12/20 03:11:36;;;;;;;0.20;0.20;;;7.90;99.90;;;;;;7391960;19;20127;-74
2023/12/20 03:14:02;;;;;;;0.30;0.30;;;8.10;99.90;;;;;;7390030;19;20155;-73
2023/12/20 03:16:27;;;;;;;0.30;0.30;;;8.10;99.90;;;;;;7393541;19;20154;-73
2023/12/20 03:18:53;;;;;;;0.40;0.40;;;8.20;99.90;;;;;;7390278;19;20243;-73
2023/12/20 03:21:19;;;;;;;0.30;0.30;;;8.10;99.90;;;;;;7392461;19;20163;-75
2023/12/20 03:23:45;;;;;;;0.20;0.20;;;8.10;99.90;;;;;;7390429;19;20158;-74
2023/12/20 03:26:11;;;;;;;0.27;0.27;;;8.00;99.90;;;;;;7390956;19;20504;-74
2023/12/20 03:28:37;;;;;;;0.33;0.30;;;8.00;99.90;;;;;;7390443;19;20159;-74
2023/12/20 03:31:03;;;;;;;0.67;0.50;;;7.90;99.90;;;;;;7391669;19;20131;-74
2023/12/20 03:33:29;;;;;;;0.43;0.43;;;7.90;99.90;;;;;;7381630;19;20143;-74
2023/12/20 03:35:55;;;;;;;0.40;0.40;;;8.00;99.90;;;;;;7387793;19;20195;-74
2023/12/20 03:38:21;;;;;;;0.40;0.40;;;8.00;99.90;;;;;;7392255;19;20621;-74
2023/12/20 03:40:47;;;;;;;0.50;0.50;;;7.90;99.90;;;;;;7391581;19;20294;-74
2023/12/20 03:43:13;;;;;;;0.10;0.10;;;7.90;99.90;;;;;;7391233;19;20133;-74
2023/12/20 03:45:38;;;;;;;0.13;0.13;;;7.90;99.90;;;;;;7391394;19;20137;-74
2023/12/20 03:48:05;;;;;;;0.20;0.20;;;7.80;99.90;;;;;;7389358;19;20502;-74
2023/12/20 03:50:31;;;;;;;0.20;0.20;;;7.90;99.90;;;;;;7389578;19;20139;-74
2023/12/20 03:52:56;;;;;;;0.20;0.20;;;7.90;99.90;;;;;;7390592;19;20134;-74
2023/12/20 03:55:22;;;;;;;0.20;0.20;;;7.90;99.90;;;;;;7385884;19;20130;-74
2023/12/20 03:57:48;;;;;;;0.20;0.20;;;7.90;99.90;;;;;;7390149;19;20147;-74
2023/12/20 04:00:14;;;;;;;0.27;0.27;;;7.90;99.90;;;;;;7388897;19;20127;-74
2023/12/20 04:02:40;;;;;;;0.20;0.20;;;8.00;99.90;;;;;;7389954;19;20604;-74
2023/12/20 04:05:07;;;;;;;0.20;0.20;;;8.00;99.90;;;;;;7388299;19;20679;-73
2023/12/20 04:07:33;;;;;;;0.20;0.20;;;8.00;99.90;;;;;;7392480;19;20134;-73
2023/12/20 04:09:58;;;;;;;0.10;0.10;;;8.10;99.90;;;;;;7389669;19;20148;-73
2023/12/20 04:12:24;;;;;;;0.20;0.20;;;8.10;99.90;;;;;;7387696;19;20127;-73
2023/12/20 04:14:50;;;;;;;0.20;0.20;;;8.10;99.90;;;;;;7389320;19;20599;-74
2023/12/20 04:17:16;;;;;;;0.33;0.20;;;8.00;99.90;;;;;;7390310;19;20135;-74
2023/12/20 04:19:42;;;;;;;0.20;0.20;;;8.10;99.90;;;;;;7388867;19;20225;-74
2023/12/20 04:22:08;;;;;;;0.17;0.17;;;8.00;99.90;;;;;;7389727;19;20146;-73
2023/12/20 04:24:34;;;;;;;0.20;0.20;;;8.00;99.90;;;;;;7390375;19;20134;-73
2023/12/20 04:27:01;;;;;;;0.17;0.17;;;8.10;99.90;;;;;;7389657;19;20475;-73
2023/12/20 04:29:26;;;;;;;0.10;0.10;;;8.00;99.90;;;;;;7389970;19;20188;-73
2023/12/20 04:31:52;;;;;;;0.20;0.20;;;8.00;99.90;;;;;;7391018;19;20639;-73
2023/12/20 04:34:18;;;;;;;0.20;0.20;;;8.10;99.90;;;;;;7389350;19;20141;-72
2023/12/20 04:36:44;;;;;;;0.10;0.10;;;8.00;99.90;;;;;;7389030;19;20131;-73
2023/12/20 04:39:14;;;;;;;0.17;0.17;;;7.90;99.90;;;;;;7390046;19;20139;-73
2023/12/20 04:41:40;;;;;;;0.20;0.20;;;7.70;99.90;;;;;;7387227;19;20145;-74
2023/12/20 04:44:06;;;;;;;0.20;0.20;;;7.70;99.90;;;;;;7389114;19;20151;-74
2023/12/20 04:46:32;;;;;;;0.20;0.20;;;7.80;99.90;;;;;;7390286;19;20206;-73
2023/12/20 04:48:58;;;;;;;0.20;0.20;;;7.60;99.90;;;;;;7388803;19;20201;-73
2023/12/20 04:51:24;;;;;;;0.20;0.20;;;7.80;99.90;;;;;;7389319;19;20502;-74
2023/12/20 04:53:49;;;;;;;0.20;0.20;;;7.80;99.90;;;;;;7388102;19;20135;-74
2023/12/20 04:56:15;;;;;;;0.30;0.30;;;7.80;99.90;;;;;;7388268;19;20155;-74
2023/12/20 04:58:42;;;;;;;0.30;0.30;;;7.90;99.90;;;;;;7393379;19;20135;-73
2023/12/20 05:01:09;;;;;;;0.20;0.20;;;7.90;99.90;;;;;;7396513;19;20134;-75
2023/12/20 05:03:35;;;;;;;0.30;0.30;;;8.00;99.90;;;;;;7394001;19;20197;-73
2023/12/20 05:06:01;;;;;;;0.17;0.17;;;8.00;99.90;;;;;;7397439;19;20495;-74
2023/12/20 05:08:26;;;;;;;0.30;0.30;;;8.00;99.90;;;;;;7392947;19;20171;-74
2023/12/20 05:10:56;;;;;;;0.57;0.30;;;7.90;99.90;;;;;;7396329;19;20150;-74
2023/12/20 05:13:21;;;;;;;0.30;0.30;;;7.90;99.90;;;;;;7396098;19;20150;-74
2023/12/20 05:15:47;;;;;;;0.30;0.30;;;7.80;99.90;;;;;;7394222;19;20244;-73
2023/12/20 05:18:13;;;;;;;0.30;0.30;;;7.90;99.90;;;;;;7395127;19;20138;-74
2023/12/20 05:20:39;;;;;;;0.20;0.20;;;8.00;99.90;;;;;;7395705;19;20211;-72
2023/12/20 05:23:06;;;;;;;0.20;0.20;;;7.90;99.90;;;;;;7396947;19;20143;-75
2023/12/20 05:25:32;;;;;;;0.20;0.20;;;7.90;99.90;;;;;;7395260;19;20143;-73
2023/12/20 05:27:57;;;;;;;0.60;0.30;;;7.90;99.90;;;;;;7394866;19;20148;-73
2023/12/20 05:30:23;;;;;;;0.20;0.20;;;7.90;99.90;;;;;;7394261;19;20160;-74
2023/12/20 05:32:49;;;;;;;0.10;0.10;;;7.80;99.90;;;;;;7395604;19;20142;-74
2023/12/20 05:35:15;;;;;;;0.20;0.20;;;7.80;99.90;;;;;;7393648;19;20596;-74
2023/12/20 05:37:41;;;;;;;0.30;0.30;;;7.80;99.90;;;;;;7391930;19;20162;-73
2023/12/20 05:40:10;;;;;;;0.10;0.10;;;7.90;99.90;;;;;;7396119;19;20515;-74
2023/12/20 05:42:37;;;;;;;0.40;0.40;;;7.90;99.90;;;;;;7395386;19;20158;-73
2023/12/20 05:45:04;;;;;;;0.20;0.20;;;7.90;99.90;;;;;;7397018;19;20156;-75
2023/12/20 05:47:30;;;;;;;0.87;0.30;;;7.90;99.90;;;;;;7395871;19;20218;-75
2023/12/20 05:49:55;;;;;;;0.20;0.20;;;8.00;99.90;;;;;;7393219;19;20175;-73
2023/12/20 05:52:21;;;;;;;0.20;0.20;;;8.00;99.90;;;;;;7395228;19;20155;-74
2023/12/20 05:54:47;;;;;;;0.30;0.30;;;8.00;99.90;;;;;;7393098;19;20168;-75
2023/12/20 05:57:13;;;;;;;1.00;0.40;;;7.70;99.90;;;;;;7396462;19;20143;-74
2023/12/20 05:59:39;;;;;;;0.20;0.20;;;7.80;99.90;;;;;;7394185;19;20139;-75
2023/12/20 06:02:05;;;;;;;0.20;0.20;;;7.80;99.90;;;;;;7393328;19;20479;-74
2023/12/20 06:04:31;;;;;;;0.30;0.30;;;7.90;99.90;;;;;;7391686;19;21251;-75
2023/12/20 06:06:57;;;;;;;0.30;0.30;;;7.90;99.90;;;;;;7394323;19;20167;-76
2023/12/20 06:09:23;;;;;;;0.50;0.30;;;7.90;99.90;;;;;;7392682;19;20135;-74
2023/12/20 06:11:49;;;;;;;0.40;0.30;;;8.00;99.90;;;;;;7392902;19;20162;-75
2023/12/20 06:14:15;;;;;;;0.20;0.20;;;8.00;99.90;;;;;;7392287;19;20142;-75
2023/12/20 06:16:40;;;;;;;2.73;0.50;;;8.00;99.90;;;;;;7392450;19;20138;-74
2023/12/20 06:19:06;;;;;;;0.20;0.20;;;8.00;99.90;;;;;;7393869;19;20251;-74
2023/12/20 06:21:32;;;;;;;0.30;0.30;;;7.90;99.90;;;;;;7392088;19;20134;-75
2023/12/20 06:23:59;;;;;;;0.30;0.30;;;8.00;99.90;;;;;;7393177;19;20135;-75
2023/12/20 06:26:25;;;;;;;0.20;0.20;;;8.00;99.90;;;;;;7392042;19;20143;-74
2023/12/20 06:28:51;;;;;;;0.20;0.20;;;8.00;99.90;;;;;;7393587;19;20147;-75
2023/12/20 06:31:17;;;;;;;0.20;0.20;;;7.90;99.90;;;;;;7393829;19;20583;-74
2023/12/20 06:33:43;;;;;;;0.20;0.20;;;7.90;99.90;;;;;;7395700;19;20210;-75
2023/12/20 06:36:13;;;;;;;0.40;0.40;;;8.00;99.90;;;;;;7393304;19;20134;-75
2023/12/20 06:38:39;;;;;;;0.37;0.37;;;8.00;99.90;;;;;;7394524;19;20235;-75
2023/12/20 06:41:04;;;;;;;0.67;0.50;;;7.90;99.90;;;;;;7390244;19;20241;-75
2023/12/20 06:43:30;;;;;;;0.40;0.40;;;7.90;99.90;;;;;;7393253;19;20131;-74
2023/12/20 06:45:57;;;;;;;0.20;0.20;;;8.00;99.90;;;;;;7392262;19;20173;-73
2023/12/20 06:48:22;;;;;;;0.30;0.30;;;8.10;99.90;;;;;;7391797;19;20570;-73
2023/12/20 06:50:48;;;;;;;0.10;0.10;;;8.10;99.90;;;;;;7392595;19;20150;-75
2023/12/20 06:53:14;;;;;;;0.30;0.30;;;8.00;99.90;;;;;;7391028;19;20131;-75
2023/12/20 06:55:39;;;;;;;0.20;0.20;;;7.90;99.90;;;;;;7390679;19;20130;-75
2023/12/20 06:58:06;;;;;;;0.30;0.30;;;7.90;99.90;;;;;;7390301;19;20261;-76
2023/12/20 07:00:32;;;;;;;0.30;0.30;;;8.00;99.90;;;;;;7393520;19;20142;-76
2023/12/20 07:02:58;;;;;;;0.47;0.47;;;8.10;99.90;;;;;;7390375;19;20493;-76
2023/12/20 07:05:24;;;;;;;0.50;0.50;;;7.90;99.90;;;;;;7390999;19;20154;-76
2023/12/20 07:07:50;;;;;;;0.40;0.40;;;8.10;99.90;;;;;;7390665;19;20152;-77
2023/12/20 07:10:16;;;;;;;0.70;0.50;;;7.90;99.90;;;;;;7391794;19;20584;-75
2023/12/20 07:12:41;;;;;;;0.30;0.30;;;7.90;99.90;;;;;;7390641;19;20458;-75
2023/12/20 07:15:08;;;;;;;0.20;0.20;;;8.10;99.90;;;;;;7392335;19;20150;-75
2023/12/20 07:17:34;;;;;;;0.30;0.30;;;8.20;99.90;;;;;;7391790;19;20150;-75
2023/12/20 07:20:03;;;;;;;0.20;0.20;;;8.20;99.90;;;;;;7388419;19;20169;-75
2023/12/20 07:22:33;;;;;;;0.57;0.53;;;8.10;99.90;;;;;;7392175;19;20622;-76
2023/12/20 07:24:59;;;;;;;0.50;0.50;;;8.20;99.90;;;;;;7390346;19;20143;-76
2023/12/20 07:27:27;;;;;;;0.30;0.30;;;8.20;99.90;;;;;;7394237;19;20155;-76
2023/12/20 07:29:53;;;;;;;0.30;0.30;;;8.20;99.90;;;;;;7390322;19;20142;-75
2023/12/20 07:32:19;;;;;;;1.27;0.40;;;8.20;99.90;;;;;;7391443;19;20628;-75
2023/12/20 07:34:45;;;;;;;0.33;0.33;;;8.10;99.90;;;;;;7389321;19;20543;-76
2023/12/20 07:37:11;;;;;;;0.93;0.47;;;7.80;99.90;;;;;;7392847;19;20260;-77
2023/12/20 07:39:41;;;;;;;0.40;0.40;;;7.80;99.90;;;;;;7388795;19;20165;-76
2023/12/20 07:42:09;;;;;;;0.30;0.30;;;7.70;99.90;;;;;;7391058;19;20573;-76
2023/12/20 07:44:38;;;;;;;0.33;0.30;;;7.80;99.90;;;;;;7390763;19;20161;-75
2023/12/20 07:47:04;;;;;;;0.30;0.30;;;8.10;99.90;;;;;;7391159;19;20164;-75
2023/12/20 07:49:33;;;;;;;0.67;0.67;;;8.10;99.90;;;;;;7391803;19;20214;-76
2023/12/20 07:51:58;;;;;;;0.60;0.60;;;8.10;99.90;;;;;;7391863;19;20220;-76
2023/12/20 07:54:24;;;;;;;0.40;0.40;;;8.10;99.90;;;;;;7391150;19;20613;-74
2023/12/20 07:56:50;;;;;;;0.30;0.30;;;8.00;99.90;;;;;;7390820;19;20201;-75
2023/12/20 07:59:16;;;;;;;0.43;0.43;;;8.00;99.90;;;;;;7389943;19;20498;-74
2023/12/20 08:01:42;;;;;;;1.60;0.60;;;7.70;99.90;;;;;;7389511;19;20596;-75
2023/12/20 08:04:08;;;;;;;0.30;0.30;;;7.90;99.90;;;;;;7388593;19;20249;-73
2023/12/20 08:06:34;;;;;;;0.40;0.40;;;8.00;99.90;;;;;;7389864;19;20632;-75
2023/12/20 08:08:59;;;;;;;0.40;0.40;;;8.00;99.90;;;;;;7389008;19;20138;-75
2023/12/20 08:11:25;;;;;;;0.30;0.30;;;7.90;99.90;;;;;;7389009;19;20206;-75
2023/12/20 08:13:51;;;;;;;0.30;0.30;;;8.00;99.90;;;;;;7389219;19;20630;-73
2023/12/20 08:16:17;;;;;;;0.37;0.37;;;8.00;99.90;;;;;;7389386;19;20163;-75
2023/12/20 08:18:43;;;;;;;0.50;0.50;;;7.70;99.90;;;;;;7387000;19;20171;-75
2023/12/20 08:21:12;;;;;;;1.93;0.80;;;7.90;99.90;;;;;;7389790;19;20622;-75
2023/12/20 08:23:38;;;;;;;0.60;0.60;;;8.00;99.90;;;;;;7390615;19;20464;-75
2023/12/20 08:26:07;;;;;;;0.93;0.67;;;7.90;99.90;;;;;;7389564;19;20161;-75
2023/12/20 08:28:34;;;;;;;0.30;0.30;;;8.10;99.90;;;;;;7386716;19;20155;-76
2023/12/20 08:31:00;;;;;;;0.70;0.70;;;7.80;99.90;;;;;;7388678;19;20153;-75
2023/12/20 08:33:26;;;;;;;0.43;0.43;;;7.80;99.90;;;;;;7386661;19;20150;-75
2023/12/20 08:35:51;;;;;;;0.40;0.40;;;7.90;99.90;;;;;;7386507;19;20145;-74
2023/12/20 08:38:17;;;;;;;0.40;0.40;;;8.00;99.90;;;;;;7389872;19;20135;-73
2023/12/20 08:40:44;;;;;;;1.47;0.87;;;8.00;99.90;;;;;;7389735;19;21507;-75
2023/12/20 08:43:10;;;;;;;0.70;0.50;;;7.90;99.90;;;;;;7388463;19;20177;-73
2023/12/20 08:45:36;;;;;;;0.73;0.70;;;8.00;99.90;;;;;;7387151;19;20138;-73
2023/12/20 08:48:03;;;;;;;0.50;0.50;;;8.10;99.90;;;;;;7388799;19;20635;-74
2023/12/20 08:50:29;;;;;;;0.50;0.50;;;8.10;99.90;;;;;;7387250;19;20236;-73
2023/12/20 08:52:55;;;;;;;1.10;0.50;;;8.10;99.90;;;;;;7385931;19;20158;-74
2023/12/20 08:55:21;;;;;;;0.57;0.57;;;7.90;99.90;;;;;;7385971;19;20623;-73
2023/12/20 08:57:46;;;;;;;0.70;0.70;;;7.90;99.90;;;;;;7385496;19;20498;-72
2023/12/20 09:00:13;;;;;;;5.43;3.07;;;7.90;99.90;;;;;;7387969;19;20140;-73
2023/12/20 09:02:39;;;;;;;1.27;1.17;;;7.70;99.90;;;;;;7387901;19;20134;-73
2023/12/20 09:05:05;;;;;;;0.80;0.60;;;7.80;99.90;;;;;;7385438;19;20143;-73
2023/12/20 09:07:31;;;;;;;1.07;0.73;;;7.70;99.90;;;;;;7390243;19;20135;-74
2023/12/20 09:09:58;;;;;;;0.53;0.53;;;7.50;99.90;;;;;;7387622;19;20645;-72
2023/12/20 09:12:24;;;;;;;0.83;0.80;;;7.40;99.90;;;;;;7389916;19;20183;-74
2023/12/20 09:14:51;;;;;;;0.43;0.43;;;7.50;99.90;;;;;;7387084;19;20151;-71
2023/12/20 09:17:18;;;;;;;0.77;0.77;;;7.60;99.90;;;;;;7389986;19;20501;-73
2023/12/20 09:19:45;;;;;;;0.60;0.60;;;7.60;99.90;;;;;;7387679;19;20138;-72
2023/12/20 09:22:11;;;;;;;0.70;0.70;;;7.60;99.90;;;;;;7387674;19;20138;-72
2023/12/20 09:24:38;;;;;;;0.70;0.70;;;7.60;99.90;;;;;;7388356;19;20143;-74
2023/12/20 09:27:05;;;;;;;2.03;0.80;;;7.60;99.90;;;;;;7387360;19;20153;-73
2023/12/20 09:29:31;;;;;;;1.80;1.60;;;7.70;99.90;;;;;;7388198;19;20143;-72
2023/12/20 09:31:57;;;;;;;1.13;1.03;;;7.70;99.90;;;;;;7386165;19;20134;-74
2023/12/20 09:34:24;;;;;;;0.70;0.70;;;7.90;99.90;;;;;;7385656;19;20143;-74
2023/12/20 09:36:49;;;;;;;0.40;0.40;;;7.90;99.90;;;;;;7386441;19;20138;-74
2023/12/20 09:39:23;;;;;;;0.40;0.40;;;7.90;99.90;;;;;;7388054;19;20151;-74
2023/12/20 09:42:11;;;;;;;0.60;0.60;;;7.80;99.90;;;;;;7385330;19;20628;-74
2023/12/20 09:44:40;;;;;;;1.23;0.97;;;7.70;99.90;;;;;;7393982;19;20617;-73
2023/12/20 09:47:06;;;;;;;0.40;0.40;;;7.90;99.90;;;;;;7396214;19;20149;-73
2023/12/20 09:49:33;;;;;;;0.97;0.93;;;7.60;99.90;;;;;;7392960;19;20615;-74
2023/12/20 09:52:00;;;;;;;0.50;0.43;;;7.60;99.90;;;;;;7393642;19;20155;-73
2023/12/20 09:54:28;;;;;;;1.33;1.23;;;7.70;99.90;;;;;;7391736;19;20205;-73
2023/12/20 09:56:54;;;;;;;1.20;0.83;;;7.70;99.90;;;;;;7395092;19;20150;-72
2023/12/20 09:59:20;;;;;;;0.20;0.20;;;7.70;99.90;;;;;;7392714;19;20754;-75
2023/12/20 10:01:46;;;;;;;0.30;0.30;;;7.80;99.90;;;;;;7391296;19;20622;-73
2023/12/20 10:04:13;;;;;;;2.23;1.20;;;7.80;99.90;;;;;;7390297;19;20181;-73
2023/12/20 10:06:43;;;;;;;0.77;0.50;;;7.90;99.90;;;;;;7393414;19;20158;-73
2023/12/20 10:09:13;;;;;;;0.33;0.33;;;8.00;99.90;;;;;;7393575;19;20378;-74
2023/12/20 10:11:39;;;;;;;1.23;0.67;;;7.70;99.90;;;;;;7396960;19;20590;-72
2023/12/20 10:14:10;;;;;;;0.23;0.23;;;7.80;99.90;;;;;;7391238;19;20142;-73
2023/12/20 10:16:36;;;;;;;1.83;0.57;;;8.10;99.90;;;;;;7396797;19;20665;-73
2023/12/20 10:19:02;;;;;;;0.60;0.60;;;8.40;99.90;;;;;;7392529;19;20165;-74
2023/12/20 10:21:28;;;;;;;0.37;0.37;;;8.00;99.90;;;;;;7393700;19;20138;-73
2023/12/20 10:23:55;;;;;;;0.40;0.40;;;8.20;99.90;;;;;;7394511;19;20143;-74
2023/12/20 10:26:22;;;;;;;0.57;0.50;;;8.20;99.90;;;;;;7392551;19;20223;-73
2023/12/20 10:28:59;;;;;;;0.50;0.40;;;8.30;99.90;;;;;;7393436;19;20143;-74
2023/12/20 10:31:33;;;;;;;0.60;0.43;;;8.30;99.90;;;;;;7391837;19;20223;-76
2023/12/20 10:34:00;;;;;;;0.40;0.40;;;8.30;99.90;;;;;;7395369;19;20139;-75
2023/12/20 10:36:27;;;;;;;1.23;0.90;;;8.30;99.90;;;;;;7392188;19;20158;-74
2023/12/20 10:38:55;;;;;;;0.50;0.40;;;8.20;99.90;;;;;;7392035;19;20143;-74
2023/12/20 10:41:24;;;;;;;0.30;0.30;;;8.30;99.90;;;;;;7394574;19;20141;-74
2023/12/20 10:43:52;;;;;;;1.57;1.27;;;8.30;99.90;;;;;;7394884;19;20142;-75
2023/12/20 10:46:19;;;;;;;0.50;0.50;;;8.30;99.90;;;;;;7392379;19;20139;-74
2023/12/20 10:48:46;;;;;;;0.70;0.70;;;8.40;99.90;;;;;;7394636;19;20157;-76
2023/12/20 10:51:17;;;;;;;0.33;0.33;;;8.20;99.90;;;;;;7393416;19;20493;-75
2023/12/20 10:53:43;;;;;;;0.50;0.50;;;8.00;99.90;;;;;;7392237;19;20137;-76
2023/12/20 10:56:15;;;;;;;2.00;0.90;;;8.10;99.90;;;;;;7388462;19;20617;-75
2023/12/20 10:58:45;;;;;;;0.60;0.60;;;8.00;99.90;;;;;;7393062;19;20135;-76
2023/12/20 11:01:13;;;;;;;0.30;0.30;;;7.90;99.90;;;;;;7394454;19;20135;-76
2023/12/20 11:03:47;;;;;;;1.87;0.80;;;8.10;99.90;;;;;;7393547;19;20202;-76
2023/12/20 11:06:51;;;;;;;0.80;0.80;;;8.10;99.90;;;;;;7391268;19;20138;-75
2023/12/20 11:09:25;;;;;;;1.40;0.37;;;8.10;99.90;;;;;;7391086;19;20146;-75
2023/12/20 11:11:59;;;;;;;0.50;0.50;;;8.00;99.90;;;;;;7393132;19;20139;-75
2023/12/20 11:15:02;;;;;;;0.40;0.40;;;7.90;99.90;;;;;;7392961;19;20525;-76
2023/12/20 11:17:28;;;;;;;0.30;0.30;;;8.10;99.90;;;;;;7392994;19;20146;-75
2023/12/20 11:19:57;;;;;;;0.80;0.60;;;8.30;99.90;;;;;;7388689;19;20202;-76
2023/12/20 11:22:29;;;;;;;0.50;0.50;;;8.10;99.90;;;;;;7392958;19;20139;-75
2023/12/20 11:25:05;;;;;;;0.40;0.40;;;8.20;99.90;;;;;;7390908;19;20247;-76
2023/12/20 11:27:32;;;;;;;0.50;0.50;;;8.30;99.90;;;;;;7391425;19;20138;-76
2023/12/20 11:29:58;;;;;;;0.30;0.30;;;8.30;99.90;;;;;;7388778;19;20142;-74
2023/12/20 11:32:24;;;;;;;1.70;1.13;;;8.20;99.90;;;;;;7391670;19;20155;-76
2023/12/20 11:34:53;;;;;;;0.50;0.40;;;8.10;99.90;;;;;;7389355;19;20138;-76
2023/12/20 11:37:20;;;;;;;1.40;0.37;;;8.10;99.90;;;;;;7391055;19;20148;-75
2023/12/20 11:39:53;;;;;;;0.47;0.47;;;8.30;99.90;;;;;;7389985;19;20142;-76
2023/12/20 11:42:20;;;;;;;0.30;0.30;;;8.40;99.90;;;;;;7389903;19;20153;-77
2023/12/20 11:44:46;;;;;;;0.30;0.30;;;8.40;99.90;;;;;;7391118;19;20614;-74
2023/12/20 11:47:13;;;;;;;0.20;0.20;;;8.10;99.90;;;;;;7391130;19;20143;-74
2023/12/20 11:49:40;;;;;;;0.90;0.47;;;8.10;99.90;;;;;;7389698;19;20177;-74
2023/12/20 11:52:06;;;;;;;0.77;0.60;;;8.20;99.90;;;;;;7391548;19;20151;-76
2023/12/20 11:54:31;;;;;;;0.47;0.47;;;8.20;99.90;;;;;;7387944;19;20148;-76
2023/12/20 11:56:57;;;;;;;1.90;0.83;;;8.10;99.90;;;;;;7390735;19;20150;-77
2023/12/20 11:59:23;;;;;;;0.67;0.53;;;7.90;99.90;;;;;;7388593;19;20150;-75
2023/12/20 12:01:50;;;;;;;0.80;0.50;;;7.90;99.90;;;;;;7389286;19;20575;-75
2023/12/20 12:04:17;;;;;;;0.43;0.40;;;7.80;99.90;;;;;;7386785;19;20170;-73
2023/12/20 12:06:45;;;;;;;2.17;0.63;;;8.00;99.90;;;;;;7388553;19;20675;-75
2023/12/20 12:09:10;;;;;;;0.30;0.30;;;7.90;99.90;;;;;;7387487;19;20126;-77
2023/12/20 12:11:36;;;;;;;1.07;0.70;;;8.00;99.90;;;;;;7389820;19;20149;-76
2023/12/20 12:14:02;;;;;;;0.47;0.47;;;8.00;99.90;;;;;;7385516;19;20138;-76
2023/12/20 12:16:28;;;;;;;0.63;0.63;;;8.10;99.90;;;;;;7391267;19;20154;-76
2023/12/20 12:18:57;;;;;;;0.60;0.50;;;8.20;99.90;;;;;;7389249;19;20142;-76
2023/12/20 12:21:23;;;;;;;1.80;0.70;;;8.10;99.90;;;;;;7390119;19;20223;-75
2023/12/20 12:23:49;;;;;;;0.50;0.50;;;8.30;99.90;;;;;;7391118;19;20239;-76
2023/12/20 12:26:15;;;;;;;0.40;0.40;;;8.20;99.90;;;;;;7389621;19;20647;-76
2023/12/20 12:28:44;;;;;;;0.30;0.30;;;8.20;99.90;;;;;;7388250;19;20149;-76
2023/12/20 12:31:16;;;;;;;1.40;0.73;;;8.20;99.90;;;;;;7387938;19;20154;-75
2023/12/20 12:33:43;;;;;;;0.50;0.50;;;8.20;99.90;;;;;;7388740;19;20167;-75
2023/12/20 12:36:11;;;;;;;1.37;1.00;;;8.40;99.90;;;;;;7388855;19;20139;-77
2023/12/20 12:38:37;;;;;;;0.40;0.40;;;8.50;99.90;;;;;;7391062;19;20154;-76
2023/12/20 12:41:04;;;;;;;1.07;0.67;;;8.50;99.90;;;;;;7391979;19;20151;-76
2023/12/20 12:43:29;;;;;;;1.63;0.70;;;8.60;99.90;;;;;;7390002;19;20143;-76
2023/12/20 12:45:55;;;;;;;0.70;0.70;;;8.60;99.90;;;;;;7389650;19;20157;-76
2023/12/20 12:48:22;;;;;;;1.17;0.83;;;8.50;99.90;;;;;;7386574;19;20158;-76
2023/12/20 12:50:47;;;;;;;0.43;0.43;;;8.80;99.90;;;;;;7390001;19;20147;-76
2023/12/20 12:53:13;;;;;;;0.60;0.50;;;9.00;99.90;;;;;;7388756;19;20150;-76
2023/12/20 12:55:43;;;;;;;1.10;0.70;;;9.00;99.90;;;;;;7386596;19;20175;-76